Time;durP1;ratioP1;P1;durP2;ratioP2;P2;SDS_P1;SDS_P2;PMS_P1;PMS_P2;Temp;Humidity;BMP_temperature;BMP_pressure;BME280_temperature;BME280_humidity;BME280_pressure;Samples;Min_cycle;Max_cycle;Signal;HPM_P1;HPM_P2
2022/01/07 00:00:20;;;;;;;5.93;4.23;;;;;;;-141.29;100.00;58932.97;5073687;28;20442;-75
2022/01/07 00:02:50;;;;;;;5.70;3.77;;;;;;;-141.29;100.00;58932.97;5074706;28;20458;-75
2022/01/07 00:05:20;;;;;;;5.13;3.73;;;;;;;-141.29;100.00;58932.97;5074595;28;20559;-75
2022/01/07 00:07:49;;;;;;;8.43;3.17;;;;;;;-141.29;100.00;58932.97;5074876;28;20937;-75
2022/01/07 00:10:22;;;;;;;7.40;3.70;;;;;;;-141.29;100.00;58932.97;5075050;28;20439;-72
2022/01/07 00:12:50;;;;;;;4.57;3.20;;;;;;;-141.29;100.00;58932.97;5075075;28;20534;-77
2022/01/07 00:15:20;;;;;;;4.87;3.60;;;;;;;-141.29;100.00;58932.97;5074607;28;20539;-74
2022/01/07 00:17:50;;;;;;;6.97;3.40;;;;;;;-141.29;100.00;58932.97;5074570;28;20953;-73
2022/01/07 00:20:18;;;;;;;5.40;3.70;;;;;;;-141.29;100.00;58932.97;5074866;28;20449;-74
2022/01/07 00:22:48;;;;;;;4.97;3.50;;;;;;;-141.29;100.00;58932.97;5074781;28;20423;-72
2022/01/07 00:25:17;;;;;;;6.23;3.53;;;;;;;-141.29;100.00;58932.97;5074694;28;20486;-74
2022/01/07 00:27:45;;;;;;;4.60;3.47;;;;;;;-141.29;100.00;58932.97;5074610;28;20438;-74
2022/01/07 00:30:17;;;;;;;5.27;3.27;;;;;;;-141.29;100.00;58932.97;5074398;28;20477;-74
2022/01/07 00:32:46;;;;;;;4.33;3.17;;;;;;;-141.29;100.00;58932.97;5074400;28;21016;-73
2022/01/07 00:35:16;;;;;;;5.47;3.23;;;;;;;-141.29;100.00;58932.97;5074920;28;20538;-74
2022/01/07 00:37:43;;;;;;;4.57;3.27;;;;;;;-141.29;100.00;58932.97;5074112;28;20473;-75
2022/01/07 00:40:14;;;;;;;5.43;3.80;;;;;;;-141.29;100.00;58932.97;5073630;28;20445;-75
2022/01/07 00:42:41;;;;;;;5.30;3.20;;;;;;;-141.29;100.00;58932.97;5074305;28;20435;-76
2022/01/07 00:45:13;;;;;;;5.40;3.40;;;;;;;-141.29;100.00;58932.97;5073718;28;20469;-77
2022/01/07 00:47:42;;;;;;;6.67;3.90;;;;;;;-141.29;100.00;58932.97;5074057;28;20431;-74
2022/01/07 00:50:18;;;;;;;5.70;3.50;;;;;;;-141.29;100.00;58932.97;5074342;28;20442;-73
2022/01/07 00:52:45;;;;;;;5.87;3.60;;;;;;;-141.29;100.00;58932.97;5074004;28;20545;-75
2022/01/07 00:55:13;;;;;;;4.27;3.10;;;;;;;-141.29;100.00;58932.97;5073954;28;20531;-74
2022/01/07 00:57:40;;;;;;;3.83;2.90;;;;;;;-141.29;100.00;58932.97;5074258;28;20512;-73
2022/01/07 01:00:15;;;;;;;6.07;4.10;;;;;;;-141.29;100.00;58932.97;5076000;28;20941;-74
2022/01/07 01:02:47;;;;;;;6.03;3.67;;;;;;;-141.29;100.00;58932.97;5074419;28;20438;-73
2022/01/07 01:05:22;;;;;;;5.63;3.60;;;;;;;-141.29;100.00;58932.97;5073618;28;20427;-72
2022/01/07 01:07:49;;;;;;;6.57;4.47;;;;;;;-141.29;100.00;58932.97;5073962;28;20446;-75
2022/01/07 01:10:21;;;;;;;6.87;3.87;;;;;;;-141.29;100.00;58932.97;5073353;28;20446;-75
2022/01/07 01:12:48;;;;;;;4.90;3.50;;;;;;;-141.29;100.00;58932.97;5073724;28;20549;-75
2022/01/07 01:15:21;;;;;;;4.83;3.40;;;;;;;-141.29;100.00;58932.97;5073522;28;20493;-74
2022/01/07 01:17:49;;;;;;;6.67;3.63;;;;;;;-141.29;100.00;58932.97;5074256;28;20449;-76
2022/01/07 01:20:17;;;;;;;5.57;3.77;;;;;;;-141.29;100.00;58932.97;5072187;28;20439;-75
2022/01/07 01:22:46;;;;;;;4.83;3.57;;;;;;;-141.29;100.00;58932.97;5073347;28;20450;-73
2022/01/07 01:25:13;;;;;;;4.80;3.10;;;;;;;-141.29;100.00;58932.97;5073122;28;20454;-76
2022/01/07 01:27:40;;;;;;;6.40;4.00;;;;;;;-141.29;100.00;58932.97;5072963;28;20450;-74
2022/01/07 01:30:11;;;;;;;6.13;4.00;;;;;;;-141.29;100.00;58932.97;5073283;28;20446;-72
2022/01/07 01:32:43;;;;;;;7.07;3.80;;;;;;;-141.29;100.00;58932.97;5073380;28;20441;-75
2022/01/07 01:35:12;;;;;;;5.13;3.57;;;;;;;-141.29;100.00;58932.97;5073196;28;20490;-75
2022/01/07 01:37:42;;;;;;;5.10;3.67;;;;;;;-141.29;100.00;58932.97;5072978;28;20431;-74
2022/01/07 01:40:20;;;;;;;4.83;3.70;;;;;;;-141.29;100.00;58932.97;5073341;28;20445;-73
2022/01/07 01:42:53;;;;;;;5.67;3.10;;;;;;;-141.29;100.00;58932.97;5072500;28;20443;-76
2022/01/07 01:45:23;;;;;;;4.63;3.40;;;;;;;-141.29;100.00;58932.97;5070755;28;20478;-74
2022/01/07 01:47:51;;;;;;;5.67;4.00;;;;;;;-141.29;100.00;58932.97;5073022;28;20454;-76
2022/01/07 01:50:33;;;;;;;6.70;4.23;;;;;;;-141.29;100.00;58932.97;5072230;28;20495;-74
2022/01/07 01:53:00;;;;;;;6.60;3.53;;;;;;;-141.29;100.00;58932.97;5071433;28;20511;-75
2022/01/07 01:55:30;;;;;;;5.83;3.70;;;;;;;-141.29;100.00;58932.97;5072646;28;20536;-75
2022/01/07 01:57:58;;;;;;;5.97;4.13;;;;;;;-141.29;100.00;58932.97;5072683;28;20446;-74
2022/01/07 02:00:27;;;;;;;5.07;3.73;;;;;;;-141.29;100.00;58932.97;5072395;28;20492;-75
2022/01/07 02:02:56;;;;;;;5.17;3.83;;;;;;;-141.29;100.00;58932.97;5072631;28;20457;-74
2022/01/07 02:05:26;;;;;;;6.20;3.80;;;;;;;-141.29;100.00;58932.97;5072555;28;20447;-75
2022/01/07 02:07:56;;;;;;;8.17;4.37;;;;;;;-141.29;100.00;58932.97;5072870;28;20809;-75
2022/01/07 02:10:24;;;;;;;4.40;3.20;;;;;;;-141.29;100.00;58932.97;5072449;28;20446;-74
2022/01/07 02:12:53;;;;;;;5.60;4.03;;;;;;;-141.29;100.00;58932.97;5073011;28;20554;-73
2022/01/07 02:15:21;;;;;;;6.87;4.20;;;;;;;-141.29;100.00;58932.97;5072451;28;20488;-76
2022/01/07 02:17:54;;;;;;;5.17;3.87;;;;;;;-141.29;100.00;58932.97;5072416;28;20451;-74
2022/01/07 02:20:28;;;;;;;5.77;3.93;;;;;;;-141.29;100.00;58932.97;5071274;28;20445;-74
2022/01/07 02:22:57;;;;;;;6.53;4.03;;;;;;;-141.29;100.00;58932.97;5071089;28;20508;-73
2022/01/07 02:25:31;;;;;;;5.87;3.77;;;;;;;-141.29;100.00;58932.97;5071134;28;20447;-75
2022/01/07 02:27:58;;;;;;;4.40;3.10;;;;;;;-141.29;100.00;58932.97;5072776;28;20438;-75
2022/01/07 02:30:27;;;;;;;6.30;3.70;;;;;;;-141.29;100.00;58932.97;5072069;28;20446;-73
2022/01/07 02:32:55;;;;;;;7.03;4.17;;;;;;;-141.29;100.00;58932.97;5072342;28;20480;-75
2022/01/07 02:35:27;;;;;;;5.10;3.77;;;;;;;-141.29;100.00;58932.97;5072067;28;20536;-74
2022/01/07 02:37:55;;;;;;;6.30;4.27;;;;;;;-141.29;100.00;58932.97;5071457;28;20447;-74
2022/01/07 02:40:23;;;;;;;5.40;3.90;;;;;;;-141.29;100.00;58932.97;5072508;28;20999;-74
2022/01/07 02:42:50;;;;;;;4.73;3.10;;;;;;;-141.29;100.00;58932.97;5072126;28;20443;-75
2022/01/07 02:45:19;;;;;;;5.83;4.00;;;;;;;-141.29;100.00;58932.97;5071677;28;20494;-74
2022/01/07 02:47:53;;;;;;;6.83;3.70;;;;;;;-141.29;100.00;58932.97;5072045;28;20454;-74
2022/01/07 02:50:27;;;;;;;5.13;3.83;;;;;;;-141.29;100.00;58932.97;5071876;28;20453;-74
2022/01/07 02:53:03;;;;;;;6.47;4.30;;;;;;;-141.29;100.00;58932.97;5072069;28;20515;-74
2022/01/07 02:55:33;;;;;;;8.80;4.00;;;;;;;-141.29;100.00;58932.97;5070856;28;20480;-75
2022/01/07 02:58:00;;;;;;;4.63;3.50;;;;;;;-141.29;100.00;58932.97;5071812;28;20439;-75
2022/01/07 03:00:30;;;;;;;6.17;3.80;;;;;;;-141.29;100.00;58932.97;5071665;28;20539;-76
2022/01/07 03:03:00;;;;;;;4.93;3.57;;;;;;;-141.29;100.00;58932.97;5071106;28;20527;-74
2022/01/07 03:05:32;;;;;;;6.67;3.70;;;;;;;-141.29;100.00;58932.97;5071935;28;20446;-74
2022/01/07 03:08:00;;;;;;;5.60;3.80;;;;;;;-141.29;100.00;58932.97;5071742;28;20450;-75
2022/01/07 03:10:31;;;;;;;6.50;3.93;;;;;;;-141.29;100.00;58932.97;5076824;28;20945;-74
2022/01/07 03:12:59;;;;;;;5.27;3.70;;;;;;;-141.29;100.00;58932.97;5071851;28;20550;-75
2022/01/07 03:15:26;;;;;;;5.60;3.83;;;;;;;-141.29;100.00;58932.97;5070699;28;20565;-74
2022/01/07 03:17:56;;;;;;;5.57;3.57;;;;;;;-141.29;100.00;58932.97;5072038;28;20443;-75
2022/01/07 03:20:24;;;;;;;4.30;3.60;;;;;;;-141.29;100.00;58932.97;5071819;28;20439;-74
2022/01/07 03:22:59;;;;;;;5.47;3.33;;;;;;;-141.29;100.00;58932.97;5071726;28;20508;-76
2022/01/07 03:25:27;;;;;;;5.67;3.47;;;;;;;-141.29;100.00;58932.97;5071874;28;20791;-74
2022/01/07 03:27:57;;;;;;;5.60;3.50;;;;;;;-141.29;100.00;58932.97;5070449;28;20442;-76
2022/01/07 03:30:25;;;;;;;6.10;3.90;;;;;;;-141.29;100.00;58932.97;5071660;28;20443;-74
2022/01/07 03:32:53;;;;;;;5.63;3.67;;;;;;;-141.29;100.00;58932.97;5071665;28;21011;-73
2022/01/07 03:35:20;;;;;;;5.97;3.93;;;;;;;-141.29;100.00;58932.97;5071090;28;20478;-73
2022/01/07 03:37:49;;;;;;;6.67;3.73;;;;;;;-141.29;100.00;58932.97;5071478;28;20537;-74
2022/01/07 03:40:20;;;;;;;5.30;3.90;;;;;;;-141.29;100.00;58932.97;5071262;28;20457;-74
2022/01/07 03:42:48;;;;;;;5.93;3.57;;;;;;;-141.29;100.00;58932.97;5071624;28;20442;-74
2022/01/07 03:45:18;;;;;;;6.57;4.33;;;;;;;-141.29;100.00;58932.97;5070018;28;20482;-75
2022/01/07 03:47:46;;;;;;;6.93;3.77;;;;;;;-141.29;100.00;58932.97;5071465;28;20493;-74
2022/01/07 03:50:15;;;;;;;6.27;4.10;;;;;;;-141.29;100.00;58932.97;5071541;28;20434;-75
2022/01/07 03:52:44;;;;;;;5.83;3.60;;;;;;;-141.29;100.00;58932.97;5071040;28;20455;-75
2022/01/07 03:55:15;;;;;;;5.60;3.57;;;;;;;-141.29;100.00;58932.97;5070152;28;20478;-74
2022/01/07 03:57:43;;;;;;;5.57;3.37;;;;;;;-141.29;100.00;58932.97;5070985;28;20892;-72
2022/01/07 04:00:15;;;;;;;6.13;3.70;;;;;;;-141.29;100.00;58932.97;5071186;28;20868;-74
2022/01/07 04:02:43;;;;;;;8.80;3.67;;;;;;;-141.29;100.00;58932.97;5071292;28;20858;-75
2022/01/07 04:05:11;;;;;;;6.57;3.93;;;;;;;-141.29;100.00;58932.97;5070881;28;20455;-74
2022/01/07 04:07:38;;;;;;;5.60;3.47;;;;;;;-141.29;100.00;58932.97;5071005;28;20500;-74
2022/01/07 04:10:07;;;;;;;6.43;4.20;;;;;;;-141.29;100.00;58932.97;5071575;28;20474;-74
2022/01/07 04:12:34;;;;;;;5.80;4.17;;;;;;;-141.29;100.00;58932.97;5072084;28;20864;-74
2022/01/07 04:15:08;;;;;;;6.47;4.27;;;;;;;-141.29;100.00;58932.97;5074548;28;20538;-74
2022/01/07 04:17:45;;;;;;;6.67;3.90;;;;;;;-141.29;100.00;58932.97;5075117;28;20517;-76
2022/01/07 04:20:17;;;;;;;7.33;4.30;;;;;;;-141.29;100.00;58932.97;5075325;28;20439;-77
2022/01/07 04:22:46;;;;;;;7.30;4.80;;;;;;;-141.29;100.00;58932.97;5074902;28;20780;-74
2022/01/07 04:25:18;;;;;;;8.07;4.63;;;;;;;-141.29;100.00;58932.97;5074600;28;20454;-76
2022/01/07 04:27:49;;;;;;;6.03;3.70;;;;;;;-141.29;100.00;58932.97;5074286;28;20508;-73
2022/01/07 04:30:21;;;;;;;8.10;5.00;;;;;;;-141.29;100.00;58932.97;5074508;28;20510;-75
2022/01/07 04:32:49;;;;;;;6.93;4.97;;;;;;;-141.29;100.00;58932.97;5075104;28;20438;-74
2022/01/07 04:35:18;;;;;;;8.10;4.63;;;;;;;-141.29;100.00;58932.97;5074413;28;20482;-75
2022/01/07 04:37:46;;;;;;;8.53;4.60;;;;;;;-141.29;100.00;58932.97;5072918;28;20531;-76
2022/01/07 04:40:16;;;;;;;9.37;5.03;;;;;;;-141.29;100.00;58932.97;5074339;28;20513;-74
2022/01/07 04:42:48;;;;;;;8.83;4.80;;;;;;;-141.29;100.00;58932.97;5074055;28;20454;-77
2022/01/07 04:45:17;;;;;;;7.70;5.03;;;;;;;-141.29;100.00;58932.97;5074634;28;20474;-74
2022/01/07 04:47:46;;;;;;;9.00;4.90;;;;;;;-141.29;100.00;58932.97;5074108;28;20450;-75
2022/01/07 04:50:18;;;;;;;9.07;5.47;;;;;;;-141.29;100.00;58932.97;5073583;28;20970;-74
2022/01/07 04:52:45;;;;;;;9.97;5.63;;;;;;;-141.29;100.00;58932.97;5074155;28;20526;-74
2022/01/07 04:55:17;;;;;;;7.67;4.40;;;;;;;-141.29;100.00;58932.97;5073318;28;20490;-74
2022/01/07 04:57:46;;;;;;;6.73;3.90;;;;;;;-141.29;100.00;58932.97;5073850;28;20534;-74
2022/01/07 05:00:18;;;;;;;7.13;4.57;;;;;;;-141.29;100.00;58932.97;5074521;28;20484;-76
2022/01/07 05:02:47;;;;;;;8.67;4.60;;;;;;;-141.29;100.00;58932.97;5074012;28;20489;-75
2022/01/07 05:05:17;;;;;;;9.47;5.03;;;;;;;-141.29;100.00;58932.97;5073722;28;20465;-74
2022/01/07 05:07:44;;;;;;;8.93;5.00;;;;;;;-141.29;100.00;58932.97;5073482;28;20486;-75
2022/01/07 05:10:15;;;;;;;10.00;5.20;;;;;;;-141.29;100.00;58932.97;5073617;28;20441;-74
2022/01/07 05:12:46;;;;;;;11.17;5.43;;;;;;;-141.29;100.00;58932.97;5073517;28;20443;-75
2022/01/07 05:15:17;;;;;;;10.40;5.37;;;;;;;-141.29;100.00;58932.97;5074030;28;20478;-73
2022/01/07 05:17:48;;;;;;;10.27;5.40;;;;;;;-141.29;100.00;58932.97;5073922;28;20450;-75
2022/01/07 05:20:18;;;;;;;10.00;5.80;;;;;;;-141.29;100.00;58932.97;5072712;28;20438;-74
2022/01/07 05:22:48;;;;;;;9.47;5.63;;;;;;;-141.29;100.00;58932.97;5075074;28;20873;-74
2022/01/07 05:25:16;;;;;;;11.93;4.90;;;;;;;-141.29;100.00;58932.97;5072808;28;20456;-75
2022/01/07 05:27:43;;;;;;;12.10;5.87;;;;;;;-141.29;100.00;58932.97;5073250;28;20971;-75
2022/01/07 05:30:15;;;;;;;14.80;6.23;;;;;;;-141.29;100.00;58932.97;5073347;28;20434;-74
2022/01/07 05:32:43;;;;;;;10.43;4.90;;;;;;;-141.29;100.00;58932.97;5074459;28;20447;-75
2022/01/07 05:35:13;;;;;;;7.60;4.80;;;;;;;-141.29;100.00;58932.97;5072993;28;20427;-75
2022/01/07 05:37:41;;;;;;;9.57;5.27;;;;;;;-141.29;100.00;58932.97;5074776;28;20435;-75
2022/01/07 05:40:09;;;;;;;10.33;5.57;;;;;;;-141.29;100.00;58932.97;5073212;28;20508;-74
2022/01/07 05:42:37;;;;;;;11.47;5.00;;;;;;;-141.29;100.00;58932.97;5071741;28;20434;-74
2022/01/07 05:45:08;;;;;;;15.97;5.57;;;;;;;-141.29;100.00;58932.97;5072336;28;20500;-74
2022/01/07 05:47:36;;;;;;;8.07;5.07;;;;;;;-141.29;100.00;58932.97;5072811;28;20500;-74
2022/01/07 05:50:07;;;;;;;10.77;5.30;;;;;;;-141.29;100.00;58932.97;5073131;28;20801;-75
2022/01/07 05:52:38;;;;;;;9.57;5.47;;;;;;;-141.29;100.00;58932.97;5071770;28;20453;-75
2022/01/07 05:55:06;;;;;;;8.20;5.23;;;;;;;-141.29;100.00;58932.97;5072794;28;20435;-73
2022/01/07 05:57:41;;;;;;;10.70;5.70;;;;;;;-141.29;100.00;58932.97;5071351;28;20447;-74
2022/01/07 06:00:11;;;;;;;9.57;5.57;;;;;;;-141.29;100.00;58932.97;5072497;28;20446;-73
2022/01/07 06:02:40;;;;;;;10.43;5.17;;;;;;;-141.29;100.00;58932.97;5072945;28;20442;-74
2022/01/07 06:05:08;;;;;;;7.77;5.27;;;;;;;-141.29;100.00;58932.97;5072732;28;20806;-75
2022/01/07 06:07:36;;;;;;;9.77;6.00;;;;;;;-141.29;100.00;58932.97;5072276;28;20492;-75
2022/01/07 06:10:03;;;;;;;10.87;5.80;;;;;;;-141.29;100.00;58932.97;5072322;28;20430;-75
2022/01/07 06:12:31;;;;;;;9.50;5.10;;;;;;;-141.29;100.00;58932.97;5072298;28;20447;-72
2022/01/07 06:14:59;;;;;;;8.37;5.20;;;;;;;-141.29;100.00;58932.97;5072352;28;20512;-75
2022/01/07 06:17:26;;;;;;;9.20;5.67;;;;;;;-141.29;100.00;58932.97;5072379;28;20938;-75
2022/01/07 06:19:53;;;;;;;10.57;6.40;;;;;;;-141.29;100.00;58932.97;5072378;28;20466;-74
2022/01/07 06:22:20;;;;;;;10.03;5.50;;;;;;;-141.29;100.00;58932.97;5072330;28;20447;-73
2022/01/07 06:24:49;;;;;;;8.50;5.13;;;;;;;-141.29;100.00;58932.97;5072100;28;21035;-74
2022/01/07 06:27:21;;;;;;;9.80;6.00;;;;;;;-141.29;100.00;58932.97;5071993;28;20953;-73
2022/01/07 06:29:48;;;;;;;10.37;6.37;;;;;;;-141.29;100.00;58932.97;5072923;28;20435;-73
2022/01/07 06:32:15;;;;;;;8.73;5.43;;;;;;;-141.29;100.00;58932.97;5071858;28;21027;-75
2022/01/07 06:34:43;;;;;;;8.97;5.87;;;;;;;-141.29;100.00;58932.97;5072051;28;20443;-74
2022/01/07 06:37:15;;;;;;;9.43;6.00;;;;;;;-141.29;100.00;58932.97;5071389;28;20482;-74
2022/01/07 06:39:42;;;;;;;10.43;5.47;;;;;;;-141.29;100.00;58932.97;5071604;28;20447;-73
2022/01/07 06:42:13;;;;;;;11.10;6.60;;;;;;;-141.29;100.00;58932.97;5071855;28;20443;-74
2022/01/07 06:44:46;;;;;;;13.73;6.50;;;;;;;-141.29;100.00;58932.97;5071974;28;21016;-73
2022/01/07 06:47:20;;;;;;;12.97;6.73;;;;;;;-141.29;100.00;58932.97;5071695;28;20535;-75
2022/01/07 06:49:48;;;;;;;10.37;6.50;;;;;;;-141.29;100.00;58932.97;5071945;28;20439;-74
2022/01/07 06:52:15;;;;;;;11.30;6.40;;;;;;;-141.29;100.00;58932.97;5071661;28;20446;-73
2022/01/07 06:54:43;;;;;;;12.20;5.60;;;;;;;-141.29;100.00;58932.97;5071672;28;20450;-75
2022/01/07 06:57:16;;;;;;;10.23;5.43;;;;;;;-141.29;100.00;58932.97;5071806;28;20897;-74
2022/01/07 06:59:45;;;;;;;13.00;6.50;;;;;;;-141.29;100.00;58932.97;5071758;28;21015;-74
2022/01/07 07:02:13;;;;;;;11.70;6.77;;;;;;;-141.29;100.00;58932.97;5072029;28;20521;-73
2022/01/07 07:04:41;;;;;;;11.60;6.73;;;;;;;-141.29;100.00;58932.97;5071522;28;20431;-73
2022/01/07 07:07:09;;;;;;;13.13;7.80;;;;;;;-141.29;100.00;58932.97;5071620;28;20438;-71
2022/01/07 07:09:38;;;;;;;14.23;6.87;;;;;;;-141.29;100.00;58932.97;5071472;28;21050;-73
2022/01/07 07:12:08;;;;;;;12.63;7.17;;;;;;;-141.29;100.00;58932.97;5071882;28;20503;-74
2022/01/07 07:14:37;;;;;;;15.13;8.07;;;;;;;-141.29;100.00;58932.97;5071675;28;20442;-74
2022/01/07 07:17:08;;;;;;;13.33;7.30;;;;;;;-141.29;100.00;58932.97;5071434;28;20482;-75
2022/01/07 07:19:35;;;;;;;12.67;7.30;;;;;;;-141.29;100.00;58932.97;5071500;28;21026;-73
2022/01/07 07:22:05;;;;;;;12.27;7.80;;;;;;;-141.29;100.00;58932.97;5071492;28;20439;-73
2022/01/07 07:24:33;;;;;;;17.77;8.40;;;;;;;-141.29;100.00;58932.97;5071603;28;20519;-74
2022/01/07 07:27:01;;;;;;;14.57;7.53;;;;;;;-141.29;100.00;58932.97;5071201;28;20446;-74
2022/01/07 07:29:29;;;;;;;12.90;8.27;;;;;;;-141.29;100.00;58932.97;5071324;28;20438;-74
2022/01/07 07:32:03;;;;;;;16.63;8.27;;;;;;;-141.29;100.00;58932.97;5070596;28;20449;-72
2022/01/07 07:34:55;;;;;;;12.87;7.47;;;;;;;-141.29;100.00;58932.97;5076341;28;20941;-75
2022/01/07 07:37:20;;;;;;;14.73;7.97;;;;;;;-141.29;100.00;58932.97;5071342;28;20488;-73
2022/01/07 07:39:48;;;;;;;11.50;7.30;;;;;;;-141.29;100.00;58932.97;5071881;28;20856;-75
2022/01/07 07:42:44;;;;;;;13.30;7.37;;;;;;;-141.29;100.00;58932.97;5071022;28;20508;-74
2022/01/07 07:45:13;;;;;;;13.70;7.37;;;;;;;-141.29;100.00;58932.97;5070819;28;20466;-73
2022/01/07 07:47:42;;;;;;;13.47;7.67;;;;;;;-141.29;100.00;58932.97;5072848;28;20465;-73
2022/01/07 07:50:17;;;;;;;16.00;8.33;;;;;;;-141.29;100.00;58932.97;5074664;28;20455;-75
2022/01/07 07:52:46;;;;;;;14.97;8.60;;;;;;;-141.29;100.00;58932.97;5075714;28;20443;-75
2022/01/07 07:55:13;;;;;;;16.47;8.27;;;;;;;-141.29;100.00;58932.97;5075108;28;20434;-76
2022/01/07 07:57:45;;;;;;;15.97;8.60;;;;;;;-141.29;100.00;58932.97;5074815;28;20496;-73
2022/01/07 08:00:17;;;;;;;18.07;10.03;;;;;;;-141.29;100.00;58932.97;5074865;28;20888;-75
2022/01/07 08:02:46;;;;;;;14.13;8.10;;;;;;;-141.29;100.00;58932.97;5073650;28;20529;-73
2022/01/07 08:05:13;;;;;;;13.87;8.30;;;;;;;-141.29;100.00;58932.97;5074778;28;20446;-73
2022/01/07 08:07:41;;;;;;;14.57;8.77;;;;;;;-141.29;100.00;58932.97;5074662;28;20465;-74
2022/01/07 08:10:11;;;;;;;16.53;9.27;;;;;;;-141.29;100.00;58932.97;5073264;28;20520;-74
2022/01/07 08:12:53;;;;;;;15.03;8.80;;;;;;;-141.29;100.00;58932.97;5074052;28;20450;-74
2022/01/07 08:18:10;;;;;;;15.00;7.73;;;;;;;-141.29;100.00;58932.97;5074884;28;20532;-75
2022/01/07 08:20:40;;;;;;;12.83;6.43;;;;;;;-141.29;100.00;58932.97;5074789;28;20431;-74
2022/01/07 08:23:08;;;;;;;13.17;7.87;;;;;;;-141.29;100.00;58932.97;5074795;28;20445;-73
2022/01/07 08:25:35;;;;;;;15.87;8.33;;;;;;;-141.29;100.00;58932.97;5074705;28;20454;-75
2022/01/07 08:28:06;;;;;;;18.60;8.83;;;;;;;-141.29;100.00;58932.97;5074572;28;20439;-74
2022/01/07 08:30:58;;;;;;;16.03;9.10;;;;;;;-141.29;100.00;58932.97;5074713;28;20526;-76
2022/01/07 08:36:18;;;;;;;18.03;8.43;;;;;;;-141.29;100.00;58932.97;5074627;28;20496;-75
2022/01/07 08:38:49;;;;;;;17.30;8.07;;;;;;;-141.29;100.00;58932.97;5074933;28;20446;-74
2022/01/07 08:41:18;;;;;;;15.60;8.17;;;;;;;-141.29;100.00;58932.97;5074211;28;20880;-73
2022/01/07 08:43:54;;;;;;;22.17;8.27;;;;;;;-141.29;100.00;58932.97;5074436;28;20860;-76
2022/01/07 08:46:21;;;;;;;14.30;7.90;;;;;;;-141.29;100.00;58932.97;5074009;28;20531;-74
2022/01/07 08:48:49;;;;;;;10.77;7.30;;;;;;;-141.29;100.00;58932.97;5073665;28;20462;-75
2022/01/07 08:51:18;;;;;;;13.53;7.43;;;;;;;-141.29;100.00;58932.97;5072847;28;20442;-75
2022/01/07 08:53:46;;;;;;;12.40;7.27;;;;;;;-141.29;100.00;58932.97;5073663;28;20528;-74
2022/01/07 08:56:16;;;;;;;12.90;7.27;;;;;;;-141.29;100.00;58932.97;5073506;28;20458;-76
2022/01/07 08:58:46;;;;;;;14.57;6.57;;;;;;;-141.29;100.00;58932.97;5073138;28;20534;-75
2022/01/07 09:01:15;;;;;;;11.90;7.27;;;;;;;-141.29;100.00;58932.97;5073371;28;20446;-75
2022/01/07 09:03:45;;;;;;;16.70;8.03;;;;;;;-141.29;100.00;58932.97;5073420;28;20455;-76
2022/01/07 09:06:17;;;;;;;12.83;8.40;;;;;;;-141.29;100.00;58932.97;5073455;28;20439;-73
2022/01/07 09:08:46;;;;;;;14.17;7.63;;;;;;;-141.29;100.00;58932.97;5073480;28;20438;-74
2022/01/07 09:11:15;;;;;;;12.70;7.90;;;;;;;-141.29;100.00;58932.97;5073463;28;20447;-74
2022/01/07 09:13:45;;;;;;;15.33;7.20;;;;;;;-141.29;100.00;58932.97;5073379;28;20458;-75
2022/01/07 09:16:12;;;;;;;13.63;7.83;;;;;;;-141.29;100.00;58932.97;5073081;28;20450;-75
2022/01/07 09:18:39;;;;;;;14.23;8.60;;;;;;;-141.29;100.00;58932.97;5073173;28;20528;-74
2022/01/07 09:21:11;;;;;;;14.60;8.40;;;;;;;-141.29;100.00;58932.97;5073358;28;20862;-73
2022/01/07 09:23:42;;;;;;;15.03;7.87;;;;;;;-141.29;100.00;58932.97;5073659;28;20443;-75
2022/01/07 09:26:10;;;;;;;14.70;7.63;;;;;;;-141.29;100.00;58932.97;5073599;28;20533;-73
2022/01/07 09:28:37;;;;;;;12.50;7.93;;;;;;;-141.29;100.00;58932.97;5072901;28;20439;-75
2022/01/07 09:31:07;;;;;;;13.17;7.83;;;;;;;-141.29;100.00;58932.97;5072815;28;20439;-74
2022/01/07 09:33:35;;;;;;;12.53;7.73;;;;;;;-141.29;100.00;58932.97;5072369;28;20869;-74
2022/01/07 09:36:20;;;;;;;12.07;7.43;;;;;;;-141.29;100.00;58932.97;5073024;28;20961;-74
2022/01/07 09:38:51;;;;;;;13.17;7.63;;;;;;;-141.29;100.00;58932.97;5074409;28;20877;-74
2022/01/07 09:41:19;;;;;;;16.93;9.57;;;;;;;-141.29;100.00;58932.97;5073901;28;20430;-74
2022/01/07 09:43:48;;;;;;;21.80;9.40;;;;;;;-141.29;100.00;58932.97;5073336;28;20447;-72
2022/01/07 09:46:19;;;;;;;14.90;7.60;;;;;;;-141.29;100.00;58932.97;5078131;28;20485;-74
2022/01/07 09:48:48;;;;;;;13.77;8.10;;;;;;;-141.29;100.00;58932.97;5073961;28;20901;-76
2022/01/07 09:51:16;;;;;;;13.73;7.30;;;;;;;-141.29;100.00;58932.97;5072952;28;20458;-75
2022/01/07 09:53:44;;;;;;;10.00;6.73;;;;;;;-141.29;100.00;58932.97;5073042;28;20434;-76
2022/01/07 09:56:19;;;;;;;13.17;7.50;;;;;;;-141.29;100.00;58932.97;5073361;28;20492;-76
2022/01/07 09:58:46;;;;;;;13.87;7.63;;;;;;;-141.29;100.00;58932.97;5073350;28;20487;-75
2022/01/07 10:01:16;;;;;;;19.77;7.20;;;;;;;-141.29;100.00;58932.97;5073435;28;20516;-76
2022/01/07 10:03:46;;;;;;;14.50;8.23;;;;;;;-141.29;100.00;58932.97;5073154;28;20491;-73
2022/01/07 10:06:20;;;;;;;18.30;8.30;;;;;;;-141.29;100.00;58932.97;5072431;28;20431;-73
2022/01/07 10:09:01;;;;;;;19.70;8.60;;;;;;;-141.29;100.00;58932.97;5072649;28;20948;-74
2022/01/07 10:11:30;;;;;;;17.87;9.43;;;;;;;-141.29;100.00;58932.97;5072613;28;20886;-76
2022/01/07 10:14:22;;;;;;;13.60;8.33;;;;;;;-141.29;100.00;58932.97;5072831;28;20504;-75
2022/01/07 10:16:54;;;;;;;20.50;8.87;;;;;;;-141.29;100.00;58932.97;5072722;28;21081;-74
2022/01/07 10:19:32;;;;;;;16.30;9.10;;;;;;;-141.29;100.00;58932.97;5072616;28;20439;-76
2022/01/07 10:22:05;;;;;;;16.87;9.87;;;;;;;-141.29;100.00;58932.97;5072313;28;20499;-75
2022/01/07 10:24:33;;;;;;;18.03;9.17;;;;;;;-141.29;100.00;58932.97;5071893;28;20443;-73
2022/01/07 10:27:16;;;;;;;18.30;9.53;;;;;;;-141.29;100.00;58932.97;5072521;28;20434;-75
2022/01/07 10:29:45;;;;;;;16.33;9.73;;;;;;;-141.29;100.00;58932.97;5072615;28;21020;-74
2022/01/07 10:32:38;;;;;;;19.50;10.07;;;;;;;-141.29;100.00;58932.97;5072249;28;20430;-74
2022/01/07 10:35:14;;;;;;;17.37;9.77;;;;;;;-141.29;100.00;58932.97;5072551;28;20453;-74
2022/01/07 10:37:55;;;;;;;17.37;9.40;;;;;;;-141.29;100.00;58932.97;5072850;28;20509;-73
2022/01/07 10:43:30;;;;;;;22.33;9.37;;;;;;;-141.29;100.00;58932.97;5072076;28;20855;-74
2022/01/07 10:48:44;;;;;;;17.20;9.77;;;;;;;-141.29;100.00;58932.97;5071893;28;20592;-75
2022/01/07 10:51:18;;;;;;;15.43;9.17;;;;;;;-141.29;100.00;58932.97;5071119;28;20438;-75
2022/01/07 10:53:53;;;;;;;20.77;8.93;;;;;;;-141.29;100.00;58932.97;5072402;28;20616;-74
2022/01/07 10:56:22;;;;;;;22.07;10.10;;;;;;;-141.29;100.00;58932.97;5071202;28;20438;-75
2022/01/07 10:59:06;;;;;;;15.47;8.47;;;;;;;-141.29;100.00;58932.97;5072813;28;20568;-74
2022/01/07 11:01:39;;;;;;;16.20;9.43;;;;;;;-141.29;100.00;58932.97;5071018;28;20941;-75
2022/01/07 11:04:08;;;;;;;17.07;9.17;;;;;;;-141.29;100.00;58932.97;5072518;28;20446;-74
2022/01/07 11:06:36;;;;;;;18.77;9.00;;;;;;;-141.29;100.00;58932.97;5072283;28;20439;-76
2022/01/07 11:09:09;;;;;;;17.37;8.63;;;;;;;-141.29;100.00;58932.97;5072515;28;20446;-75
2022/01/07 11:11:44;;;;;;;20.83;9.00;;;;;;;-141.29;100.00;58932.97;5072444;28;20454;-75
2022/01/07 11:14:18;;;;;;;18.00;8.67;;;;;;;-141.29;100.00;58932.97;5073038;28;20435;-75
2022/01/07 11:16:54;;;;;;;21.60;9.53;;;;;;;-141.29;100.00;58932.97;5072595;28;20443;-74
2022/01/07 11:19:24;;;;;;;13.53;8.70;;;;;;;-141.29;100.00;58932.97;5073216;28;20415;-73
2022/01/07 11:21:53;;;;;;;15.90;8.87;;;;;;;-141.29;100.00;58932.97;5072390;28;20442;-75
2022/01/07 11:24:41;;;;;;;21.40;8.87;;;;;;;-141.29;100.00;58932.97;5076218;28;20442;-74
2022/01/07 11:27:11;;;;;;;13.17;8.17;;;;;;;-141.29;100.00;58932.97;5076472;28;20453;-75
2022/01/07 11:29:52;;;;;;;18.60;8.30;;;;;;;-141.29;100.00;58932.97;5076729;28;20434;-76